Time;durP1;ratioP1;P1;durP2;ratioP2;P2;SDS_P1;SDS_P2;PMS_P1;PMS_P2;Temp;Humidity;BMP_temperature;BMP_pressure;BME280_temperature;BME280_humidity;BME280_pressure;Samples;Min_cycle;Max_cycle;Signal;HPM_P1;HPM_P2
2022/07/25 00:01:24;;;;;;;15.98;11.13;;;;;;;18.47;72.43;93878.78;5005613;28;20054;-66
2022/07/25 00:03:55;;;;;;;15.52;10.82;;;;;;;18.45;72.37;93893.16;5015454;28;20049;-64
2022/07/25 00:06:22;;;;;;;15.00;11.10;;;;;;;18.43;72.31;93889.28;5011803;28;20042;-63
2022/07/25 00:08:49;;;;;;;16.60;11.40;;;;;;;18.46;72.40;93888.38;5012027;28;20497;-65
2022/07/25 00:11:16;;;;;;;20.58;11.63;;;;;;;18.38;72.63;93884.38;5012056;28;20048;-64
2022/07/25 00:13:43;;;;;;;16.05;11.48;;;;;;;18.35;72.83;93878.53;5002121;28;20104;-64
2022/07/25 00:16:10;;;;;;;17.20;10.95;;;;;;;18.39;72.66;93877.56;5007567;28;20042;-64
2022/07/25 00:18:37;;;;;;;16.00;11.37;;;;;;;18.40;72.60;93881.91;5011442;28;20050;-64
2022/07/25 00:21:04;;;;;;;16.92;11.70;;;;;;;18.28;72.92;93876.06;5011810;28;20045;-65
2022/07/25 00:23:30;;;;;;;15.68;10.88;;;;;;;18.32;72.53;93867.56;5011582;28;20056;-65
2022/07/25 00:25:57;;;;;;;15.45;11.32;;;;;;;18.26;72.95;93866.66;5011494;28;20046;-66
2022/07/25 00:28:24;;;;;;;14.63;11.05;;;;;;;18.25;72.78;93870.66;4995986;28;20050;-66
2022/07/25 00:30:50;;;;;;;14.80;11.20;;;;;;;18.26;72.51;93867.41;5010291;28;20380;-66
2022/07/25 00:33:17;;;;;;;14.65;10.68;;;;;;;18.23;72.23;93868.38;5011838;28;20049;-65
2022/07/25 00:35:44;;;;;;;17.15;10.70;;;;;;;18.22;72.41;93866.81;5011146;28;20629;-65
2022/07/25 00:38:11;;;;;;;16.20;11.05;;;;;;;18.21;72.26;93864.50;5011755;28;20050;-65
2022/07/25 00:40:37;;;;;;;14.60;10.50;;;;;;;18.07;72.93;93869.47;5010202;28;20042;-65
2022/07/25 00:43:04;;;;;;;16.13;11.03;;;;;;;17.91;73.96;93864.25;5011615;28;20052;-66
2022/07/25 00:45:31;;;;;;;14.07;10.05;;;;;;;17.90;73.34;93868.25;5007814;28;20056;-65
2022/07/25 00:47:58;;;;;;;14.95;10.60;;;;;;;17.86;73.37;93864.88;5011820;28;20042;-65
2022/07/25 00:50:24;;;;;;;15.20;10.60;;;;;;;17.86;73.51;93864.88;5011238;28;20050;-65
2022/07/25 00:52:51;;;;;;;16.35;10.10;;;;;;;17.86;73.43;93860.09;5011212;28;20733;-66
2022/07/25 00:55:19;;;;;;;37.23;25.33;;;;;;;17.85;73.84;93866.09;5011310;28;20064;-66
2022/07/25 00:57:46;;;;;;;17.85;13.02;;;;;;;17.81;74.20;93862.66;5009874;28;20920;-66
2022/07/25 01:00:14;;;;;;;15.20;11.13;;;;;;;17.83;73.82;93868.53;5011282;28;20052;-62
2022/07/25 01:02:41;;;;;;;15.73;10.98;;;;;;;17.84;73.56;93859.00;5020958;28;20517;-65
2022/07/25 01:05:09;;;;;;;15.73;11.35;;;;;;;17.76;74.40;93856.50;5011130;28;20510;-65
2022/07/25 01:07:37;;;;;;;14.90;10.90;;;;;;;17.81;74.18;93854.34;5010506;28;20038;-66
2022/07/25 01:10:05;;;;;;;14.20;11.07;;;;;;;17.71;74.67;93853.59;5010962;28;20379;-65
2022/07/25 01:12:43;;;;;;;15.82;11.63;;;;;;;17.70;74.36;93849.28;5010659;28;20037;-65
2022/07/25 01:15:10;;;;;;;16.65;11.15;;;;;;;17.69;74.62;93853.31;5010832;28;20046;-65
2022/07/25 01:17:37;;;;;;;15.73;11.27;;;;;;;17.70;74.75;93855.59;5010264;28;20054;-67
2022/07/25 01:20:04;;;;;;;16.30;11.30;;;;;;;17.67;74.47;93853.75;5011014;28;20050;-65
2022/07/25 01:22:31;;;;;;;16.27;11.65;;;;;;;17.56;75.36;93851.44;5010478;28;20045;-66
2022/07/25 01:24:57;;;;;;;16.52;11.45;;;;;;;17.55;74.91;93849.91;5010329;28;20053;-65
2022/07/25 01:27:24;;;;;;;16.75;11.68;;;;;;;17.57;74.96;93852.22;5010194;28;20056;-65
2022/07/25 01:29:51;;;;;;;18.23;11.85;;;;;;;17.54;75.21;93853.13;5010627;28;20038;-66
2022/07/25 01:32:17;;;;;;;15.53;11.20;;;;;;;17.50;75.42;93841.41;5010672;28;20548;-65
2022/07/25 01:34:44;;;;;;;15.85;11.27;;;;;;;17.43;75.76;93841.75;5010213;28;20398;-65
2022/07/25 01:37:11;;;;;;;16.52;11.32;;;;;;;17.44;75.57;93843.28;5010587;28;20060;-65
2022/07/25 01:39:37;;;;;;;15.52;11.45;;;;;;;17.44;75.61;93835.72;5009659;28;20041;-65
2022/07/25 01:42:05;;;;;;;24.40;17.85;;;;;;;17.37;76.42;93839.56;5010580;28;20302;-65
2022/07/25 01:44:31;;;;;;;17.80;12.57;;;;;;;17.36;76.21;93838.03;5009972;28;20417;-66
2022/07/25 01:46:58;;;;;;;19.00;12.73;;;;;;;17.40;76.38;93837.09;5010311;28;20046;-66
2022/07/25 01:49:25;;;;;;;19.40;12.25;;;;;;;17.37;76.47;93836.78;5010030;28;20407;-65
2022/07/25 01:51:52;;;;;;;17.83;12.15;;;;;;;17.32;76.50;93839.41;5010280;28;20046;-65
2022/07/25 01:54:18;;;;;;;17.40;12.05;;;;;;;17.31;76.65;93841.41;5008964;28;20077;-65
2022/07/25 01:56:46;;;;;;;19.03;12.30;;;;;;;17.29;76.92;93829.25;5007855;28;20818;-65
2022/07/25 01:59:14;;;;;;;17.02;12.60;;;;;;;17.18;77.42;93829.69;5010353;28;20053;-65
2022/07/25 02:01:41;;;;;;;19.55;12.93;;;;;;;17.16;77.62;93826.59;5012020;28;20049;-66
2022/07/25 02:04:08;;;;;;;18.65;12.77;;;;;;;17.10;77.99;93829.22;5020176;28;20119;-65
2022/07/25 02:06:36;;;;;;;18.85;13.05;;;;;;;16.96;78.81;93830.59;5009688;28;20565;-65
2022/07/25 02:09:03;;;;;;;19.50;13.60;;;;;;;16.86;79.43;93825.47;5009936;28;20099;-66
2022/07/25 02:11:30;;;;;;;20.13;13.18;;;;;;;16.77;79.73;93818.66;5009898;28;20508;-65
2022/07/25 02:13:56;;;;;;;18.25;13.00;;;;;;;16.81;79.67;93823.28;5009592;28;20486;-65
2022/07/25 02:16:23;;;;;;;20.33;13.88;;;;;;;16.76;80.04;93819.91;5001885;28;20065;-65
2022/07/25 02:18:55;;;;;;;18.73;13.75;;;;;;;16.87;79.51;93813.94;5007256;28;20042;-65
2022/07/25 02:21:22;;;;;;;19.97;13.77;;;;;;;16.86;79.47;93817.16;5009986;28;20049;-65
2022/07/25 02:23:49;;;;;;;19.25;13.52;;;;;;;16.93;79.33;93812.09;5009566;28;20407;-66
2022/07/25 02:26:15;;;;;;;18.13;12.90;;;;;;;16.92;79.58;93809.78;5010073;28;20091;-65
2022/07/25 02:28:42;;;;;;;18.63;12.93;;;;;;;16.88;79.41;93807.16;5009209;28;20042;-65
2022/07/25 02:31:09;;;;;;;18.50;13.10;;;;;;;16.85;79.74;93815.63;5010350;28;20404;-64
2022/07/25 02:33:36;;;;;;;18.83;12.10;;;;;;;16.89;79.17;93813.47;5012283;28;20049;-65
2022/07/25 02:36:03;;;;;;;19.83;12.95;;;;;;;16.87;79.40;93807.63;5010343;28;20657;-65
2022/07/25 02:38:30;;;;;;;20.58;12.68;;;;;;;16.86;79.46;93795.78;5008226;28;20073;-65
2022/07/25 02:40:56;;;;;;;17.73;12.48;;;;;;;16.86;79.48;93795.78;5009427;28;20050;-65
2022/07/25 02:43:23;;;;;;;17.75;12.73;;;;;;;16.85;79.47;93794.22;5009334;28;20517;-65
2022/07/25 02:45:50;;;;;;;20.03;12.13;;;;;;;16.78;79.54;93803.59;5009672;28;20044;-65
2022/07/25 02:48:17;;;;;;;17.88;12.50;;;;;;;16.74;79.94;93802.97;5009817;28;20046;-65
2022/07/25 02:50:44;;;;;;;17.13;12.57;;;;;;;16.73;79.80;93800.63;5009059;28;20038;-65
2022/07/25 02:53:10;;;;;;;16.63;12.52;;;;;;;16.65;80.57;93793.84;5008287;28;20038;-65
2022/07/25 02:55:37;;;;;;;19.15;13.15;;;;;;;16.50;81.36;93799.16;5009231;28;20406;-66
2022/07/25 02:58:04;;;;;;;20.77;13.37;;;;;;;16.42;82.04;93795.16;5009370;28;20038;-65
2022/07/25 03:00:31;;;;;;;19.95;13.75;;;;;;;16.49;81.86;93794.88;5009332;28;20046;-65
2022/07/25 03:02:58;;;;;;;19.60;13.52;;;;;;;16.46;81.98;93790.22;5010623;28;20038;-65
2022/07/25 03:05:25;;;;;;;22.45;14.05;;;;;;;16.43;82.21;93796.69;5012881;28;20418;-65
2022/07/25 03:07:52;;;;;;;20.63;13.60;;;;;;;16.37;82.56;93802.81;5013018;28;20100;-65
2022/07/25 03:10:18;;;;;;;21.07;14.13;;;;;;;16.34;82.70;93800.22;5013291;28;20402;-65
2022/07/25 03:12:45;;;;;;;19.35;13.43;;;;;;;16.28;82.93;93796.47;5012628;28;20047;-65
2022/07/25 03:15:12;;;;;;;19.15;13.15;;;;;;;16.28;82.94;93794.50;5012955;28;20042;-65
2022/07/25 03:17:40;;;;;;;20.05;13.57;;;;;;;16.37;82.64;93785.44;5012632;28;20057;-65
2022/07/25 03:20:08;;;;;;;18.92;13.07;;;;;;;16.41;82.23;93785.31;5012917;28;20042;-65
2022/07/25 03:22:34;;;;;;;19.23;13.30;;;;;;;16.41;82.04;93777.75;5012515;28;20049;-65
2022/07/25 03:25:03;;;;;;;18.00;13.32;;;;;;;16.37;81.92;93786.22;5012720;28;20048;-66
2022/07/25 03:27:29;;;;;;;16.83;12.43;;;;;;;16.38;81.70;93776.69;5010522;28;20057;-64
2022/07/25 03:29:57;;;;;;;19.50;13.35;;;;;;;16.37;81.75;93777.13;5013535;28;20410;-65
2022/07/25 03:32:24;;;;;;;20.45;13.57;;;;;;;16.29;82.22;93773.09;5012857;28;20056;-64
2022/07/25 03:34:51;;;;;;;20.43;13.00;;;;;;;16.09;83.06;93767.94;5013258;28;20045;-65
2022/07/25 03:37:18;;;;;;;19.27;14.07;;;;;;;16.18;82.59;93771.53;5012484;28;20064;-66
2022/07/25 03:39:45;;;;;;;22.35;14.00;;;;;;;16.15;82.65;93774.44;5011767;28;20041;-65
2022/07/25 03:42:11;;;;;;;20.42;13.35;;;;;;;16.17;82.34;93767.22;5012800;28;20037;-64
2022/07/25 03:44:38;;;;;;;19.67;13.55;;;;;;;16.13;82.49;93771.34;5012106;28;20042;-65
2022/07/25 03:47:05;;;;;;;19.13;13.87;;;;;;;16.04;83.17;93766.56;5012343;28;20057;-64
2022/07/25 03:49:32;;;;;;;21.75;14.50;;;;;;;16.10;82.85;93763.97;5011689;28;20057;-64
2022/07/25 03:51:59;;;;;;;20.08;13.80;;;;;;;16.06;83.29;93764.09;5011996;28;20072;-64
2022/07/25 03:54:26;;;;;;;22.40;14.40;;;;;;;16.02;83.96;93763.47;5012023;28;20504;-64
2022/07/25 03:56:53;;;;;;;19.95;14.45;;;;;;;16.05;83.71;93759.78;5011766;28;20446;-64
2022/07/25 03:59:20;;;;;;;20.90;14.40;;;;;;;16.10;83.67;93759.19;5012452;28;20049;-63
2022/07/25 04:01:48;;;;;;;22.20;15.30;;;;;;;16.10;83.51;93766.75;5013154;28;20888;-64
2022/07/25 04:04:16;;;;;;;21.02;14.10;;;;;;;16.01;84.16;93761.91;5012326;28;20042;-63
2022/07/25 04:06:44;;;;;;;20.05;13.77;;;;;;;16.11;83.82;93771.03;5011675;28;20041;-65
2022/07/25 04:09:11;;;;;;;22.02;14.10;;;;;;;16.10;83.55;93769.50;5012121;28;20038;-64
2022/07/25 04:11:38;;;;;;;20.10;14.23;;;;;;;16.15;83.48;93772.44;4998277;28;20053;-64
2022/07/25 04:14:05;;;;;;;20.67;13.95;;;;;;;16.07;83.80;93767.63;5008365;28;20046;-64
2022/07/25 04:16:33;;;;;;;19.25;14.30;;;;;;;16.11;83.69;93773.81;5010507;28;20042;-65
2022/07/25 04:19:03;;;;;;;20.70;14.13;;;;;;;16.11;83.91;93768.28;5011569;28;20411;-65
2022/07/25 04:21:32;;;;;;;22.25;15.13;;;;;;;16.01;84.43;93753.63;5011343;28;20403;-64
2022/07/25 04:23:58;;;;;;;21.10;14.33;;;;;;;16.12;83.78;93764.28;5011788;28;20034;-65
2022/07/25 04:26:25;;;;;;;23.58;15.10;;;;;;;16.10;83.80;93764.75;5011275;28;20052;-64
2022/07/25 04:28:52;;;;;;;21.77;14.27;;;;;;;16.17;83.53;93758.13;5008200;28;20442;-64
2022/07/25 04:31:18;;;;;;;21.48;14.73;;;;;;;16.10;83.78;93763.97;5012075;28;20406;-64
2022/07/25 04:33:45;;;;;;;22.63;15.70;;;;;;;16.21;83.17;93758.00;5013528;28;20498;-65
2022/07/25 04:36:12;;;;;;;20.33;14.67;;;;;;;16.19;83.27;93755.69;5019846;28;20042;-64
2022/07/25 04:38:39;;;;;;;22.95;14.70;;;;;;;16.21;83.16;93758.00;5011040;28;20160;-64
2022/07/25 04:41:07;;;;;;;22.30;14.27;;;;;;;16.23;82.97;93753.53;5010985;28;20848;-64
2022/07/25 04:43:33;;;;;;;22.35;15.30;;;;;;;16.27;82.78;93751.41;4995954;28;20419;-66
2022/07/25 04:46:00;;;;;;;22.63;15.07;;;;;;;16.36;82.51;93750.69;5011030;28;20042;-64
2022/07/25 04:48:27;;;;;;;20.73;14.27;;;;;;;16.41;81.93;93746.53;5010721;28;20064;-63
2022/07/25 04:50:54;;;;;;;19.77;14.32;;;;;;;16.33;81.98;93755.13;5010836;28;20128;-64
2022/07/25 04:53:21;;;;;;;20.90;14.05;;;;;;;16.33;82.19;93748.81;5010593;28;20050;-63
2022/07/25 04:55:48;;;;;;;22.17;14.27;;;;;;;16.40;81.97;93750.53;5011203;28;20052;-65
2022/07/25 04:58:14;;;;;;;19.65;13.75;;;;;;;16.15;82.86;93746.75;5011106;28;20419;-63
2022/07/25 05:00:41;;;;;;;21.87;14.07;;;;;;;16.22;83.22;93751.22;5010607;28;20049;-63
2022/07/25 05:03:08;;;;;;;20.58;14.52;;;;;;;16.41;82.45;93752.06;5010721;28;20408;-64
2022/07/25 05:05:35;;;;;;;22.75;14.18;;;;;;;16.54;81.67;93749.94;5010070;28;20525;-63
2022/07/25 05:08:02;;;;;;;24.02;13.98;;;;;;;16.61;81.56;93754.44;5010409;28;20045;-64
2022/07/25 05:10:29;;;;;;;22.02;14.35;;;;;;;16.69;81.03;93753.66;5010635;28;20049;-64
2022/07/25 05:12:57;;;;;;;20.57;13.60;;;;;;;16.62;81.23;93753.97;5009397;28;20041;-63
2022/07/25 05:15:24;;;;;;;19.42;14.20;;;;;;;16.72;81.37;93758.31;5009058;28;20057;-63
2022/07/25 05:17:50;;;;;;;20.88;13.85;;;;;;;16.77;81.23;93760.44;5010525;28;20070;-65
2022/07/25 05:20:17;;;;;;;20.42;14.23;;;;;;;16.76;81.33;93758.94;5010605;28;20107;-64
2022/07/25 05:22:44;;;;;;;22.42;14.20;;;;;;;16.84;81.03;93750.31;5008979;28;20421;-63
2022/07/25 05:25:11;;;;;;;20.73;13.90;;;;;;;17.05;80.38;93757.75;5010460;28;20049;-65
2022/07/25 05:27:39;;;;;;;19.10;13.80;;;;;;;17.23;79.74;93754.22;5009409;28;20406;-63
2022/07/25 05:30:08;;;;;;;19.60;14.65;;;;;;;17.23;79.78;93754.22;5009698;28;20044;-63
2022/07/25 05:32:35;;;;;;;20.70;13.93;;;;;;;17.28;79.68;93747.25;5009577;28;20048;-63
2022/07/25 05:35:03;;;;;;;19.30;14.05;;;;;;;17.43;78.64;93750.19;5010930;28;20038;-63
2022/07/25 05:37:30;;;;;;;20.23;13.63;;;;;;;17.61;78.38;93738.31;5008018;28;19928;-63
2022/07/25 05:39:57;;;;;;;19.83;14.25;;;;;;;17.58;78.06;93746.28;5009583;28;20412;-65
2022/07/25 05:42:23;;;;;;;19.77;14.10;;;;;;;17.65;78.26;93750.78;5009329;28;20038;-64
2022/07/25 05:44:50;;;;;;;21.67;14.32;;;;;;;18.22;76.49;93752.94;5009881;28;20038;-64
2022/07/25 05:47:17;;;;;;;19.48;13.80;;;;;;;20.58;67.23;93747.53;5009441;28;20093;-70
2022/07/25 05:49:43;;;;;;;17.03;12.93;;;;;;;23.30;58.01;93734.84;5009233;28;20402;-68
2022/07/25 05:52:10;;;;;;;19.08;14.00;;;;;;;24.19;54.44;93738.41;5007892;28;20049;-69
2022/07/25 05:54:40;;;;;;;16.95;13.00;;;;;;;25.41;51.16;93740.75;5009089;28;20064;-69
2022/07/25 05:57:06;;;;;;;15.38;12.43;;;;;;;27.26;46.23;93738.59;5008937;28;20058;-69
2022/07/25 05:59:33;;;;;;;15.98;12.85;;;;;;;27.57;45.35;93735.66;5009220;28;20052;-69
2022/07/25 06:02:01;;;;;;;15.93;11.93;;;;;;;28.24;44.51;93731.94;5008499;28;20045;-68
2022/07/25 06:04:28;;;;;;;16.10;12.23;;;;;;;29.06;42.31;93720.31;5010161;28;20045;-64
2022/07/25 06:06:54;;;;;;;15.18;12.75;;;;;;;29.02;41.77;93726.28;5010110;28;20082;-63
2022/07/25 06:09:22;;;;;;;16.50;13.02;;;;;;;29.81;40.77;93724.72;5009524;28;20045;-63
2022/07/25 06:11:49;;;;;;;14.63;12.60;;;;;;;30.22;39.74;93723.31;5009618;28;20052;-63
2022/07/25 06:14:27;;;;;;;15.03;12.80;;;;;;;30.77;38.65;93725.34;5009188;28;20126;-63
2022/07/25 06:16:55;;;;;;;19.15;13.23;;;;;;;31.48;37.53;93719.63;5009423;28;20068;-68
2022/07/25 06:19:22;;;;;;;14.70;12.32;;;;;;;31.47;37.25;93720.94;5006536;28;20587;-67
2022/07/25 06:21:49;;;;;;;14.23;12.23;;;;;;;31.51;37.72;93717.75;5009696;28;20046;-65
2022/07/25 06:24:16;;;;;;;15.10;11.77;;;;;;;31.93;36.85;93711.88;5009274;28;20414;-68
2022/07/25 06:26:43;;;;;;;14.47;11.93;;;;;;;31.77;36.79;93717.47;5000523;28;20100;-64
2022/07/25 06:29:09;;;;;;;14.75;12.10;;;;;;;31.60;37.67;93715.16;5003362;28;20045;-64
2022/07/25 06:31:36;;;;;;;14.30;12.13;;;;;;;32.76;35.76;93713.41;5009360;28;20398;-68
2022/07/25 06:34:03;;;;;;;15.30;12.50;;;;;;;33.73;34.05;93713.69;5015954;28;20371;-65
2022/07/25 06:36:31;;;;;;;14.07;11.48;;;;;;;34.47;32.82;93708.75;5014507;28;20052;-65
2022/07/25 06:38:59;;;;;;;14.50;11.40;;;;;;;34.89;32.35;93710.97;5009898;28;20045;-66
2022/07/25 06:41:26;;;;;;;15.35;12.02;;;;;;;36.29;29.94;93706.84;5013432;28;20054;-68
2022/07/25 06:43:52;;;;;;;13.90;11.18;;;;;;;37.23;28.77;93698.38;4998614;28;20462;-63
2022/07/25 06:46:19;;;;;;;12.98;11.45;;;;;;;38.12;27.22;93695.75;5013367;28;20045;-64
2022/07/25 06:48:46;;;;;;;15.55;11.02;;;;;;;37.67;28.10;93701.03;5012571;28;20842;-64
2022/07/25 06:51:13;;;;;;;12.93;11.10;;;;;;;36.47;29.85;93701.84;5013284;28;20084;-66
2022/07/25 06:53:40;;;;;;;12.40;10.57;;;;;;;37.88;28.28;93697.56;5012933;28;20049;-65
2022/07/25 06:56:06;;;;;;;13.40;11.00;;;;;;;39.35;26.21;93695.75;5012957;28;20154;-69
2022/07/25 06:58:33;;;;;;;13.73;11.05;;;;;;;39.65;25.41;93698.47;5012960;28;20050;-65
2022/07/25 07:01:00;;;;;;;13.70;11.27;;;;;;;39.59;25.19;93693.06;5013097;28;20418;-66
2022/07/25 07:03:27;;;;;;;12.13;10.93;;;;;;;37.82;27.25;93687.78;5013154;28;20131;-69
2022/07/25 07:05:54;;;;;;;12.30;10.90;;;;;;;37.34;27.71;93698.56;5013437;28;20046;-66
2022/07/25 07:08:21;;;;;;;11.80;10.60;;;;;;;38.48;27.05;93694.00;5012627;28;20049;-64
2022/07/25 07:10:47;;;;;;;13.00;10.48;;;;;;;40.07;24.87;93686.19;5011709;28;20034;-65
2022/07/25 07:13:17;;;;;;;11.95;10.70;;;;;;;39.61;24.90;93689.59;5011421;28;20045;-65
2022/07/25 07:15:49;;;;;;;11.63;10.53;;;;;;;40.69;24.04;93687.22;5005382;28;20046;-67
2022/07/25 07:18:17;;;;;;;12.50;10.02;;;;;;;41.50;22.82;93693.63;5013267;28;20116;-66
2022/07/25 07:20:46;;;;;;;10.82;9.82;;;;;;;42.23;21.88;93677.00;5012700;28;20053;-69
2022/07/25 07:23:13;;;;;;;11.00;9.90;;;;;;;40.02;22.78;93684.41;5012661;28;20053;-66
2022/07/25 07:25:45;;;;;;;10.98;9.88;;;;;;;39.77;23.70;93676.31;5012411;28;20042;-67
2022/07/25 07:28:13;;;;;;;12.57;10.43;;;;;;;38.55;24.97;93675.91;5011942;28;20042;-67
2022/07/25 07:30:40;;;;;;;11.75;10.57;;;;;;;38.70;25.20;93677.66;5012373;28;20058;-69
2022/07/25 07:33:27;;;;;;;10.70;9.70;;;;;;;40.83;22.48;93670.13;5013744;28;20398;-66
2022/07/25 07:35:55;;;;;;;11.07;9.98;;;;;;;39.90;23.37;93670.00;5022454;28;20105;-69
2022/07/25 07:38:23;;;;;;;12.45;9.68;;;;;;;40.33;21.97;93672.06;5012136;28;20041;-69
2022/07/25 07:40:51;;;;;;;10.30;9.30;;;;;;;40.09;22.84;93669.09;5012749;28;20044;-69
2022/07/25 07:43:18;;;;;;;11.05;9.43;;;;;;;39.83;22.83;93668.09;5012406;28;20245;-67
2022/07/25 07:45:44;;;;;;;10.10;9.10;;;;;;;40.53;22.34;93661.84;5012138;28;20038;-66
2022/07/25 07:48:11;;;;;;;10.80;9.30;;;;;;;40.73;21.86;93670.25;5012357;28;20048;-66
2022/07/25 07:50:39;;;;;;;10.40;9.30;;;;;;;40.07;22.86;93660.31;5011802;28;20037;-66
2022/07/25 07:53:06;;;;;;;11.20;10.10;;;;;;;40.11;22.46;93669.22;5012123;28;20049;-66
2022/07/25 07:55:46;;;;;;;10.85;9.75;;;;;;;40.63;22.52;93660.94;4992890;28;20060;-68
2022/07/25 07:58:17;;;;;;;11.85;9.70;;;;;;;41.12;21.33;93664.00;5002267;28;20072;-67
2022/07/25 08:00:45;;;;;;;10.00;8.98;;;;;;;40.80;21.80;93659.88;5011685;28;20042;-66
2022/07/25 08:03:17;;;;;;;10.57;9.57;;;;;;;39.73;22.68;93655.94;5013353;28;20035;-66
2022/07/25 08:05:47;;;;;;;10.90;9.80;;;;;;;37.90;25.12;93660.47;5005766;28;20054;-66
2022/07/25 08:08:14;;;;;;;11.70;10.00;;;;;;;38.05;25.10;93659.41;5011870;28;20042;-66
2022/07/25 08:10:44;;;;;;;10.98;9.88;;;;;;;38.47;24.32;93660.22;5011926;28;20045;-66
2022/07/25 08:13:22;;;;;;;11.07;9.98;;;;;;;37.13;27.21;93664.03;5009670;28;20053;-66
2022/07/25 08:15:52;;;;;;;11.57;10.27;;;;;;;37.01;28.18;93658.13;5011221;28;20877;-67
2022/07/25 08:18:19;;;;;;;11.90;10.70;;;;;;;38.21;26.03;93667.69;5008652;28;20050;-67
2022/07/25 08:20:47;;;;;;;12.55;10.00;;;;;;;37.38;27.38;93664.50;5011400;28;20044;-66
2022/07/25 08:23:15;;;;;;;11.63;10.07;;;;;;;37.62;26.64;93655.53;5011680;28;20068;-66
2022/07/25 08:25:42;;;;;;;11.32;10.23;;;;;;;36.96;26.82;93656.28;5011554;28;20045;-67
2022/07/25 08:28:09;;;;;;;12.30;10.60;;;;;;;36.59;27.48;93653.44;5011105;28;20038;-66
2022/07/25 08:30:37;;;;;;;11.43;10.23;;;;;;;37.21;26.43;93655.31;5001486;28;20059;-66
2022/07/25 08:33:09;;;;;;;12.52;10.05;;;;;;;35.35;28.69;93665.66;4993289;28;20031;-66
2022/07/25 08:35:36;;;;;;;11.68;10.20;;;;;;;35.89;28.41;93658.59;5021858;28;20457;-68
2022/07/25 08:38:03;;;;;;;11.75;10.55;;;;;;;35.69;29.25;93661.31;5011313;28;20116;-66
2022/07/25 08:40:31;;;;;;;11.65;10.45;;;;;;;36.64;27.69;93663.84;5011159;28;20433;-66
2022/07/25 08:42:58;;;;;;;12.57;11.27;;;;;;;35.92;29.74;93663.91;5011683;28;20034;-66
2022/07/25 08:45:27;;;;;;;13.82;11.15;;;;;;;34.69;31.97;93662.28;5010686;28;20046;-67
2022/07/25 08:47:55;;;;;;;13.27;11.68;;;;;;;34.30;32.36;93655.34;5011428;28;20038;-67
2022/07/25 08:50:25;;;;;;;12.30;11.07;;;;;;;34.31;32.63;93660.47;5010645;28;20050;-65
2022/07/25 08:52:53;;;;;;;12.82;11.40;;;;;;;35.00;31.27;93667.72;5011463;28;20042;-67
2022/07/25 08:55:39;;;;;;;14.60;12.03;;;;;;;34.68;32.05;93666.47;5010750;28;20046;-67
2022/07/25 08:58:06;;;;;;;12.38;11.18;;;;;;;35.22;30.89;93656.72;5010922;28;20042;-67
2022/07/25 09:00:33;;;;;;;12.93;11.55;;;;;;;34.52;32.09;93673.59;5010463;28;20052;-69
2022/07/25 09:03:02;;;;;;;13.27;11.75;;;;;;;34.99;31.13;93669.03;5013915;28;20045;-68
2022/07/25 09:05:30;;;;;;;12.57;11.27;;;;;;;34.15;32.63;93656.19;5010645;28;20050;-67
2022/07/25 09:08:09;;;;;;;13.87;12.47;;;;;;;34.04;33.14;93660.19;5011013;28;20049;-70
2022/07/25 09:10:38;;;;;;;14.20;12.05;;;;;;;34.98;31.70;93653.28;5010249;28;20049;-70
2022/07/25 09:13:06;;;;;;;13.25;11.68;;;;;;;34.04;33.03;93657.34;5010613;28;20046;-69
2022/07/25 09:15:35;;;;;;;13.25;11.85;;;;;;;33.98;33.90;93643.34;5010176;28;20049;-68
2022/07/25 09:18:08;;;;;;;12.30;10.90;;;;;;;34.21;32.92;93651.03;5003086;28;20053;-68
2022/07/25 09:21:04;;;;;;;12.23;11.03;;;;;;;34.11;32.58;93658.63;5005571;28;20038;-70
2022/07/25 09:23:34;;;;;;;13.40;11.52;;;;;;;33.90;32.63;93650.41;5010320;28;20050;-70
2022/07/25 09:26:09;;;;;;;13.00;11.70;;;;;;;33.96;33.41;93648.84;5009134;28;20056;-68
2022/07/25 09:28:41;;;;;;;12.77;11.35;;;;;;;34.12;33.26;93640.97;4997906;28;20042;-67
2022/07/25 09:31:08;;;;;;;12.68;11.38;;;;;;;34.39;31.98;93651.84;5010455;28;20034;-67
2022/07/25 09:33:45;;;;;;;12.30;11.10;;;;;;;35.00;31.09;93650.63;5012922;28;20046;-69
2022/07/25 09:36:12;;;;;;;12.93;11.40;;;;;;;35.12;30.45;93648.03;5014734;28;20045;-68
2022/07/25 09:38:39;;;;;;;12.30;11.00;;;;;;;35.04;30.58;93645.25;5010072;28;20062;-68
2022/07/25 09:41:06;;;;;;;12.50;10.73;;;;;;;35.70;29.36;93648.56;5008774;28;20058;-68
2022/07/25 09:43:37;;;;;;;11.50;10.32;;;;;;;37.10;27.34;93642.31;5009871;28;20120;-68
2022/07/25 09:46:04;;;;;;;11.60;10.40;;;;;;;37.51;26.69;93642.50;5010399;28;20042;-65
2022/07/25 09:48:32;;;;;;;11.30;10.10;;;;;;;36.09;26.99;93648.81;5009631;28;20546;-67
2022/07/25 09:50:59;;;;;;;11.30;10.10;;;;;;;35.92;27.86;93643.91;5010187;28;20064;-68
2022/07/25 09:53:26;;;;;;;11.05;9.80;;;;;;;36.19;26.62;93637.47;5009501;28;20038;-69
2022/07/25 09:55:53;;;;;;;11.90;9.93;;;;;;;36.71;27.05;93634.41;5010181;28;20052;-66
2022/07/25 09:58:20;;;;;;;10.87;9.77;;;;;;;37.28;25.79;93640.09;4995780;28;20038;-66
2022/07/25 10:00:48;;;;;;;10.98;9.88;;;;;;;38.73;23.38;93644.88;5009299;28;20750;-67
2022/07/25 10:03:37;;;;;;;10.20;9.10;;;;;;;39.65;22.80;93641.78;5011325;28;20121;-66
2022/07/25 10:06:13;;;;;;;10.85;9.75;;;;;;;39.37;22.92;93634.88;5010400;28;20213;-67
2022/07/25 10:08:40;;;;;;;10.68;9.57;;;;;;;38.21;24.01;93639.75;5009429;28;20069;-69
2022/07/25 10:11:21;;;;;;;10.00;9.00;;;;;;;38.69;23.77;93627.38;5009771;28;20052;-71
2022/07/25 10:13:48;;;;;;;13.13;9.20;;;;;;;37.21;24.41;93629.56;5008029;28;20815;-66
2022/07/25 10:16:17;;;;;;;10.50;8.85;;;;;;;36.82;25.47;93629.47;5009699;28;20045;-69
2022/07/25 10:18:51;;;;;;;9.73;8.70;;;;;;;36.38;26.15;93628.22;5009436;28;20052;-66
2022/07/25 10:21:19;;;;;;;9.15;8.10;;;;;;;38.20;22.94;93632.53;5009594;28;20045;-67
2022/07/25 10:24:07;;;;;;;8.63;7.73;;;;;;;38.95;19.66;93633.44;5009135;28;21794;-66
2022/07/25 10:26:49;;;;;;;8.77;7.88;;;;;;;39.68;18.18;93625.41;5009613;28;20100;-66
2022/07/25 10:29:16;;;;;;;9.40;7.97;;;;;;;37.91;19.89;93615.38;5009525;28;20509;-67
2022/07/25 10:31:44;;;;;;;8.40;7.40;;;;;;;40.44;18.31;93619.56;5008084;28;20046;-67
2022/07/25 10:34:29;;;;;;;8.45;7.38;;;;;;;39.87;18.58;93616.66;5016946;28;20041;-70
2022/07/25 10:36:56;;;;;;;8.10;6.97;;;;;;;40.71;17.85;93624.09;4989720;28;20407;-67
2022/07/25 10:39:23;;;;;;;8.07;6.90;;;;;;;40.59;17.31;93618.31;4991926;28;20046;-67
2022/07/25 10:41:54;;;;;;;7.78;7.07;;;;;;;41.57;16.12;93614.09;5009879;28;20044;-69
2022/07/25 10:44:21;;;;;;;8.13;7.32;;;;;;;41.45;17.12;93609.09;5008969;28;20495;-64
2022/07/25 10:46:49;;;;;;;7.85;7.00;;;;;;;41.08;17.36;93614.81;5009608;28;20045;-68
2022/07/25 10:49:24;;;;;;;8.30;7.47;;;;;;;40.46;17.68;93607.44;5009537;28;20041;-71
2022/07/25 10:52:00;;;;;;;9.25;7.35;;;;;;;38.75;19.47;93612.72;4989281;28;20454;-68
2022/07/25 10:54:35;;;;;;;8.60;7.68;;;;;;;37.34;21.14;93600.50;4989336;28;20057;-68
2022/07/25 10:57:04;;;;;;;9.05;8.00;;;;;;;37.52;21.33;93598.22;4994640;28;20050;-67
2022/07/25 10:59:36;;;;;;;8.98;7.97;;;;;;;38.90;19.99;93591.53;5008875;28;20590;-67
2022/07/25 11:02:05;;;;;;;10.03;7.40;;;;;;;39.24;19.93;93601.72;5010867;28;20050;-68
2022/07/25 11:04:32;;;;;;;7.97;6.88;;;;;;;38.59;19.39;93594.41;5008742;28;20046;-66
2022/07/25 11:07:14;;;;;;;8.15;7.20;;;;;;;36.97;21.55;93592.03;5009297;28;20054;-67
2022/07/25 11:09:42;;;;;;;8.90;6.63;;;;;;;35.96;21.75;93594.91;5009019;28;20105;-69
2022/07/25 11:12:14;;;;;;;10.48;7.00;;;;;;;35.06;23.90;93596.19;4989384;28;20112;-67
2022/07/25 11:14:42;;;;;;;8.97;7.27;;;;;;;34.13;24.49;93584.78;4999537;28;20379;-67
2022/07/25 11:17:11;;;;;;;8.50;6.97;;;;;;;34.14;24.33;93597.72;5009213;28;20037;-69
2022/07/25 11:19:38;;;;;;;7.90;6.90;;;;;;;34.31;23.53;93589.25;5008768;28;20042;-67
2022/07/25 11:22:05;;;;;;;9.68;7.07;;;;;;;33.74;24.59;93595.66;5009251;28;20188;-67
2022/07/25 11:24:43;;;;;;;9.60;6.85;;;;;;;34.20;24.64;93586.84;5009430;28;20495;-69